Time;durP1;ratioP1;P1;durP2;ratioP2;P2;SDS_P1;SDS_P2;PMS_P1;PMS_P2;Temp;Humidity;BMP_temperature;BMP_pressure;BME280_temperature;BME280_humidity;BME280_pressure;Samples;Min_cycle;Max_cycle;Signal;HPM_P1;HPM_P2
2023/01/26 00:01:10;;;;;;;153.25;43.47;;;-0.40;99.90;;;;;;5011218;28;20041;-76
2023/01/26 00:03:36;;;;;;;51.33;15.27;;;-0.30;99.90;;;;;;5003711;28;20037;-76
2023/01/26 00:06:06;;;;;;;52.20;19.85;;;-0.40;99.90;;;;;;5027649;28;20118;-76
2023/01/26 00:08:36;;;;;;;53.17;17.45;;;-0.40;99.90;;;;;;5013895;28;20040;-76
2023/01/26 00:11:06;;;;;;;51.38;15.95;;;-0.40;99.90;;;;;;5012239;28;20077;-77
2023/01/26 00:13:33;;;;;;;135.90;42.92;;;-0.40;99.90;;;;;;5018713;28;20041;-77
2023/01/26 00:15:58;;;;;;;47.88;15.52;;;-0.40;99.90;;;;;;5018837;28;20172;-76
2023/01/26 00:18:24;;;;;;;49.10;18.00;;;-0.40;99.90;;;;;;5013358;28;20045;-76
2023/01/26 00:21:01;;;;;;;48.97;16.48;;;-0.30;99.90;;;;;;5011963;28;20045;-76
2023/01/26 00:23:29;;;;;;;63.42;19.08;;;-0.40;99.90;;;;;;5001369;28;20408;-76
2023/01/26 00:25:54;;;;;;;52.38;17.35;;;-0.30;99.90;;;;;;5015204;28;20189;-76
2023/01/26 00:28:20;;;;;;;47.38;16.83;;;-0.30;99.90;;;;;;4996847;28;20112;-77
2023/01/26 00:30:46;;;;;;;146.85;41.58;;;-0.30;99.90;;;;;;5012573;28;20038;-76
2023/01/26 00:33:12;;;;;;;141.10;42.28;;;-0.30;99.90;;;;;;4996854;28;20045;-76
2023/01/26 00:35:37;;;;;;;149.27;42.88;;;-0.30;99.90;;;;;;4994974;28;20171;-77
2023/01/26 00:38:03;;;;;;;146.85;44.00;;;-0.30;99.90;;;;;;5012899;28;20049;-77
2023/01/26 00:40:29;;;;;;;184.85;46.25;;;-0.30;99.90;;;;;;5012427;28;20055;-77
2023/01/26 00:42:55;;;;;;;55.63;17.45;;;-0.30;99.90;;;;;;4996553;28;20049;-76
2023/01/26 00:45:21;;;;;;;154.30;44.45;;;-0.30;99.90;;;;;;4996908;28;20277;-77
2023/01/26 00:47:47;;;;;;;54.10;19.35;;;-0.30;99.90;;;;;;5018757;28;20048;-77
2023/01/26 00:50:12;;;;;;;166.07;44.97;;;-0.20;99.90;;;;;;5010052;28;20037;-77
2023/01/26 00:52:38;;;;;;;57.53;18.35;;;-0.30;99.90;;;;;;4996593;28;20045;-77
2023/01/26 00:55:04;;;;;;;53.80;15.75;;;-0.30;99.90;;;;;;5013108;28;20041;-77
2023/01/26 00:57:30;;;;;;;167.55;43.92;;;-0.20;99.90;;;;;;5010745;28;20407;-77
2023/01/26 00:59:56;;;;;;;53.75;17.42;;;-0.20;99.90;;;;;;4994199;28;20096;-77
2023/01/26 01:02:22;;;;;;;49.45;16.13;;;-0.30;99.90;;;;;;5012528;28;20037;-76
2023/01/26 01:04:47;;;;;;;58.35;18.13;;;-0.30;99.90;;;;;;5011785;28;20037;-76
2023/01/26 01:07:13;;;;;;;51.13;17.00;;;-0.30;99.90;;;;;;5010384;28;20476;-77
2023/01/26 01:09:38;;;;;;;59.85;16.90;;;-0.30;99.90;;;;;;5012039;28;20480;-77
2023/01/26 01:12:04;;;;;;;54.97;18.90;;;-0.30;99.90;;;;;;5011733;28;20424;-77
2023/01/26 01:14:30;;;;;;;45.65;16.23;;;-0.20;99.90;;;;;;5020326;28;20046;-76
2023/01/26 01:16:56;;;;;;;53.53;16.30;;;-0.20;99.90;;;;;;5001347;28;20161;-76
2023/01/26 01:19:21;;;;;;;174.32;44.30;;;-0.20;99.90;;;;;;4996167;28;20129;-77
2023/01/26 01:21:47;;;;;;;183.77;43.40;;;-0.20;99.90;;;;;;4994398;28;20419;-76
2023/01/26 01:24:13;;;;;;;54.28;16.92;;;-0.20;99.90;;;;;;5012485;28;20408;-76
2023/01/26 01:26:39;;;;;;;53.20;16.13;;;-0.10;99.90;;;;;;5011407;28;20042;-76
2023/01/26 01:29:06;;;;;;;49.88;15.77;;;-0.20;99.90;;;;;;5011554;28;20053;-76
2023/01/26 01:31:34;;;;;;;159.98;40.35;;;-0.20;99.90;;;;;;4995116;28;20081;-76
2023/01/26 01:34:00;;;;;;;138.07;38.58;;;-0.10;99.90;;;;;;5012044;28;20042;-76
2023/01/26 01:36:25;;;;;;;44.92;14.05;;;-0.10;99.90;;;;;;5010654;28;20370;-76
2023/01/26 01:38:51;;;;;;;118.95;38.28;;;-0.10;99.90;;;;;;5019143;28;20041;-76
2023/01/26 01:41:21;;;;;;;155.52;40.17;;;-0.10;99.90;;;;;;5011852;28;20052;-76
2023/01/26 01:43:47;;;;;;;147.32;37.40;;;-0.10;99.90;;;;;;5012057;28;20038;-76
2023/01/26 01:46:17;;;;;;;46.30;13.95;;;-0.10;99.90;;;;;;4993851;28;20060;-76
2023/01/26 01:48:50;;;;;;;125.82;37.30;;;-0.10;99.90;;;;;;5011808;28;20080;-76
2023/01/26 01:51:20;;;;;;;55.47;14.82;;;-0.10;99.90;;;;;;5010093;28;20038;-76
2023/01/26 01:53:49;;;;;;;144.55;37.70;;;0.00;99.90;;;;;;5018617;28;20056;-76
2023/01/26 01:56:20;;;;;;;45.67;15.75;;;-0.10;99.90;;;;;;5027469;28;20042;-76
2023/01/26 01:58:50;;;;;;;117.75;35.58;;;-0.10;99.90;;;;;;5010760;28;20061;-76
2023/01/26 02:01:15;;;;;;;42.65;14.20;;;-0.10;99.90;;;;;;5003472;28;20044;-76
2023/01/26 02:03:43;;;;;;;44.10;12.07;;;-0.10;99.90;;;;;;5009997;28;20042;-76
2023/01/26 02:06:29;;;;;;;44.17;15.02;;;0.00;99.90;;;;;;5002401;28;20029;-76
2023/01/26 02:08:56;;;;;;;45.05;13.68;;;-0.10;99.90;;;;;;5011334;28;20042;-76
2023/01/26 02:11:26;;;;;;;129.82;36.40;;;-0.10;99.90;;;;;;5010392;28;20392;-76
2023/01/26 02:13:53;;;;;;;182.23;39.92;;;-0.10;99.90;;;;;;5011156;28;20045;-76
2023/01/26 02:16:19;;;;;;;60.38;17.30;;;-0.10;99.90;;;;;;5009858;28;20634;-76
2023/01/26 02:18:45;;;;;;;143.23;36.70;;;-0.10;99.90;;;;;;5009278;28;20052;-77
2023/01/26 02:21:16;;;;;;;163.90;39.10;;;-0.10;99.90;;;;;;5010395;28;20446;-76
2023/01/26 02:24:00;;;;;;;43.60;15.65;;;0.00;99.90;;;;;;5011078;28;20145;-76
2023/01/26 02:26:28;;;;;;;46.90;13.52;;;-0.10;99.90;;;;;;4986300;28;20038;-76
2023/01/26 02:28:54;;;;;;;51.45;14.88;;;-0.10;99.90;;;;;;4994423;28;20117;-76
2023/01/26 02:31:22;;;;;;;48.63;14.20;;;-0.10;99.90;;;;;;5017287;28;20149;-76
2023/01/26 02:33:48;;;;;;;52.35;14.23;;;-0.10;99.90;;;;;;5011073;28;20048;-76
2023/01/26 02:36:23;;;;;;;132.27;35.35;;;-0.10;99.90;;;;;;5009140;28;20615;-76
2023/01/26 02:39:20;;;;;;;121.18;34.60;;;-0.10;99.90;;;;;;4987340;28;20088;-76
2023/01/26 02:44:32;;;;;;;125.45;33.80;;;0.00;99.90;;;;;;5010930;28;20140;-76
2023/01/26 02:46:58;;;;;;;40.05;13.20;;;0.00;99.90;;;;;;4992379;28;20080;-76
2023/01/26 02:52:08;;;;;;;128.95;36.35;;;0.10;99.90;;;;;;5010097;28;20057;-77
2023/01/26 02:57:17;;;;;;;147.23;34.85;;;0.00;99.90;;;;;;5003884;28;20137;-76
2023/01/26 02:59:43;;;;;;;46.38;13.75;;;0.10;99.90;;;;;;5010666;28;20128;-76
2023/01/26 03:02:09;;;;;;;36.60;11.80;;;0.10;99.90;;;;;;4993016;28;20053;-76
2023/01/26 03:04:34;;;;;;;40.28;13.55;;;0.10;99.90;;;;;;5009146;28;20038;-76
2023/01/26 03:07:00;;;;;;;129.88;33.20;;;0.10;99.90;;;;;;4995975;28;20104;-76
2023/01/26 03:09:25;;;;;;;42.95;13.70;;;0.10;99.90;;;;;;5009843;28;20052;-76
2023/01/26 03:11:51;;;;;;;143.68;34.40;;;0.10;99.90;;;;;;5009472;28;20030;-75
2023/01/26 03:14:17;;;;;;;44.60;13.98;;;0.10;99.90;;;;;;5010414;28;20516;-76
2023/01/26 03:16:43;;;;;;;42.80;13.43;;;0.10;99.90;;;;;;5007940;28;20095;-76
2023/01/26 03:27:25;;;;;;;42.47;14.40;;;0.20;99.90;;;;;;5008077;28;20100;-76
2023/01/26 03:29:51;;;;;;;45.45;12.68;;;0.20;99.90;;;;;;5011926;28;20050;-76
2023/01/26 03:32:17;;;;;;;35.28;12.15;;;0.20;99.90;;;;;;5011519;28;20042;-76
2023/01/26 03:34:43;;;;;;;121.50;33.00;;;0.20;99.90;;;;;;4997887;28;20485;-75
2023/01/26 03:37:09;;;;;;;163.75;35.15;;;0.20;99.90;;;;;;5012493;28;20033;-75
2023/01/26 03:56:18;;;;;;;41.50;12.75;;;0.20;99.90;;;;;;5012171;28;20068;-75
2023/01/26 03:58:49;;;;;;;128.70;33.40;;;0.20;99.90;;;;;;5013778;28;20044;-75
2023/01/26 04:01:20;;;;;;;41.40;13.45;;;0.30;99.90;;;;;;5014090;28;20046;-75
2023/01/26 04:09:19;;;;;;;135.38;32.85;;;0.30;99.90;;;;;;5007676;28;20450;-75
2023/01/26 04:11:46;;;;;;;36.53;12.18;;;0.30;99.90;;;;;;5013686;28;20132;-75
2023/01/26 04:22:26;;;;;;;46.85;12.98;;;0.30;99.90;;;;;;5013485;28;20068;-76
2023/01/26 04:24:52;;;;;;;42.58;12.27;;;0.30;99.90;;;;;;5019991;28;20485;-76
2023/01/26 04:27:18;;;;;;;113.25;32.15;;;0.30;99.90;;;;;;5013351;28;20030;-76
2023/01/26 04:29:43;;;;;;;108.93;30.52;;;0.30;99.90;;;;;;5013800;28;20034;-75
2023/01/26 04:32:09;;;;;;;146.60;34.97;;;0.30;99.90;;;;;;5020900;28;20128;-75
2023/01/26 04:34:35;;;;;;;117.32;31.70;;;0.30;99.90;;;;;;5021450;28;20099;-76
2023/01/26 04:37:00;;;;;;;100.35;30.08;;;0.30;99.90;;;;;;5013068;28;20575;-76
2023/01/26 04:39:26;;;;;;;101.18;30.00;;;0.30;99.90;;;;;;5021007;28;20046;-76
2023/01/26 04:41:51;;;;;;;142.55;32.60;;;0.30;99.90;;;;;;5014629;28;20050;-76
2023/01/26 04:44:17;;;;;;;129.35;32.55;;;0.30;99.90;;;;;;5011448;28;20042;-76
2023/01/26 04:46:43;;;;;;;33.70;11.18;;;0.30;99.90;;;;;;4996300;28;20042;-76
2023/01/26 04:49:09;;;;;;;52.35;11.73;;;0.30;99.90;;;;;;5023636;28;20034;-76
2023/01/26 04:51:34;;;;;;;142.32;32.35;;;0.30;99.90;;;;;;5032962;28;20041;-76
2023/01/26 04:54:00;;;;;;;43.42;11.95;;;0.30;99.90;;;;;;5032806;28;20519;-76
2023/01/26 04:56:34;;;;;;;35.15;12.80;;;0.30;99.90;;;;;;4994203;28;20038;-76
2023/01/26 04:59:03;;;;;;;125.10;31.25;;;0.30;99.90;;;;;;5005841;28;20041;-76
2023/01/26 05:01:29;;;;;;;124.78;30.88;;;0.30;99.90;;;;;;5032576;28;20038;-76
2023/01/26 05:03:57;;;;;;;116.72;32.30;;;0.30;99.90;;;;;;5018664;28;20042;-76
2023/01/26 05:06:23;;;;;;;43.67;12.38;;;0.40;99.90;;;;;;5011038;28;20040;-76
2023/01/26 05:08:48;;;;;;;40.40;12.38;;;0.30;99.90;;;;;;4995494;28;20033;-76
2023/01/26 05:11:14;;;;;;;177.02;34.08;;;0.30;99.90;;;;;;5003541;28;20033;-76
2023/01/26 05:13:40;;;;;;;115.53;31.85;;;0.30;99.90;;;;;;5005151;28;20046;-76
2023/01/26 05:16:06;;;;;;;128.35;33.60;;;0.30;99.90;;;;;;4996630;28;20030;-76
2023/01/26 05:18:32;;;;;;;138.30;33.80;;;0.30;99.90;;;;;;4981974;28;20038;-76
2023/01/26 05:20:57;;;;;;;47.92;12.85;;;0.30;99.90;;;;;;4992894;28;20555;-76
2023/01/26 05:23:23;;;;;;;138.45;31.95;;;0.40;99.90;;;;;;5009268;28;20412;-76
2023/01/26 05:25:49;;;;;;;53.65;13.65;;;0.40;99.90;;;;;;5008406;28;20096;-76
2023/01/26 05:28:14;;;;;;;120.22;33.63;;;0.40;99.90;;;;;;5012193;28;20500;-76
2023/01/26 05:30:40;;;;;;;167.02;35.83;;;0.40;99.90;;;;;;5012318;28;20029;-76
2023/01/26 05:33:08;;;;;;;119.90;33.97;;;0.40;99.90;;;;;;4996167;28;20108;-76
2023/01/26 05:35:34;;;;;;;158.23;36.45;;;0.40;99.90;;;;;;4995282;28;20084;-76
2023/01/26 05:38:00;;;;;;;131.57;34.45;;;0.40;99.90;;;;;;5012234;28;20439;-76
2023/01/26 05:40:29;;;;;;;128.90;35.70;;;0.40;99.90;;;;;;4999471;28;20098;-76
2023/01/26 05:42:54;;;;;;;45.88;13.93;;;0.40;99.90;;;;;;5014715;28;20041;-76
2023/01/26 05:45:20;;;;;;;170.98;38.97;;;0.40;99.90;;;;;;5011367;28;20029;-76
2023/01/26 05:47:47;;;;;;;152.57;37.83;;;0.40;99.90;;;;;;4994834;28;20164;-76
2023/01/26 05:50:14;;;;;;;49.47;13.00;;;0.40;99.90;;;;;;5003582;28;20412;-76
2023/01/26 05:52:40;;;;;;;48.67;14.52;;;0.40;99.90;;;;;;5026306;28;20037;-76
2023/01/26 05:55:06;;;;;;;146.10;37.90;;;0.40;99.90;;;;;;5000439;28;20128;-77
2023/01/26 05:57:32;;;;;;;149.40;36.13;;;0.40;99.90;;;;;;5005804;28;20037;-77
2023/01/26 05:59:57;;;;;;;123.90;35.55;;;0.40;99.90;;;;;;5010711;28;20049;-77
2023/01/26 06:02:26;;;;;;;142.35;35.30;;;0.40;99.90;;;;;;5005891;28;20037;-77
2023/01/26 06:04:51;;;;;;;150.38;36.70;;;0.40;99.90;;;;;;5007099;28;20484;-77
2023/01/26 06:07:17;;;;;;;136.75;36.08;;;0.40;99.90;;;;;;5014055;28;20117;-77
2023/01/26 06:09:44;;;;;;;189.73;37.33;;;0.40;99.90;;;;;;4997437;28;20147;-76
2023/01/26 06:12:18;;;;;;;268.27;42.00;;;0.40;99.90;;;;;;4993995;28;20096;-75
2023/01/26 06:14:43;;;;;;;164.23;37.88;;;0.50;99.90;;;;;;5003017;28;20038;-75
2023/01/26 06:17:10;;;;;;;184.65;38.75;;;0.50;99.90;;;;;;5040499;28;20569;-77
2023/01/26 06:19:36;;;;;;;183.88;36.25;;;0.50;99.90;;;;;;4991384;28;20124;-76
2023/01/26 06:22:02;;;;;;;161.80;38.00;;;0.50;99.90;;;;;;5011690;28;20041;-76
2023/01/26 06:24:28;;;;;;;206.00;41.90;;;0.50;99.90;;;;;;4995480;28;20045;-76
2023/01/26 06:26:54;;;;;;;44.72;14.40;;;0.50;99.90;;;;;;5012646;28;20060;-76
2023/01/26 06:29:20;;;;;;;159.27;37.13;;;0.50;99.90;;;;;;5013199;28;20547;-76
2023/01/26 06:31:45;;;;;;;178.57;38.58;;;0.50;99.90;;;;;;4995654;28;20484;-76
2023/01/26 06:34:11;;;;;;;214.95;39.88;;;0.50;99.90;;;;;;5010700;28;20040;-76
2023/01/26 06:36:37;;;;;;;155.43;37.47;;;0.50;99.90;;;;;;5017455;28;20465;-76
2023/01/26 06:39:02;;;;;;;278.45;45.85;;;0.50;99.90;;;;;;5022637;28;20037;-76
2023/01/26 06:41:28;;;;;;;57.05;14.82;;;0.50;99.90;;;;;;5012638;28;20045;-76
2023/01/26 06:43:54;;;;;;;46.53;15.73;;;0.40;99.90;;;;;;4993393;28;20038;-75
2023/01/26 06:46:20;;;;;;;49.63;16.40;;;0.50;99.90;;;;;;4990766;28;20038;-75
2023/01/26 06:48:46;;;;;;;204.65;40.13;;;0.50;99.90;;;;;;5012148;28;20044;-75
2023/01/26 06:51:14;;;;;;;187.65;40.45;;;0.50;99.90;;;;;;5022068;28;20025;-75
2023/01/26 06:53:46;;;;;;;152.95;39.65;;;0.50;99.90;;;;;;5030583;28;20048;-75
2023/01/26 06:56:11;;;;;;;60.55;16.77;;;0.50;99.90;;;;;;5024905;28;20512;-75
2023/01/26 06:58:37;;;;;;;201.15;39.95;;;0.50;99.90;;;;;;5003707;28;20068;-75
2023/01/26 07:01:03;;;;;;;202.10;39.50;;;0.50;99.90;;;;;;5010621;28;20048;-75
2023/01/26 07:03:29;;;;;;;187.40;41.53;;;0.50;99.90;;;;;;5018724;28;20125;-74
2023/01/26 07:05:55;;;;;;;187.57;39.92;;;0.50;99.90;;;;;;5010106;28;20436;-74
2023/01/26 07:08:20;;;;;;;248.88;44.38;;;0.50;99.90;;;;;;4994182;28;20048;-75
2023/01/26 07:10:47;;;;;;;346.80;50.08;;;0.50;99.90;;;;;;5006211;28;20038;-75
2023/01/26 07:13:13;;;;;;;198.32;43.13;;;0.50;99.90;;;;;;5008558;28;20050;-75
2023/01/26 07:15:39;;;;;;;241.00;44.40;;;0.50;99.90;;;;;;5008034;28;20125;-75
2023/01/26 07:18:04;;;;;;;205.20;42.80;;;0.50;99.90;;;;;;5010353;28;20050;-76
2023/01/26 07:20:32;;;;;;;178.75;40.75;;;0.50;99.90;;;;;;5011197;28;20053;-76
2023/01/26 07:23:01;;;;;;;234.20;45.47;;;0.50;99.90;;;;;;5010312;28;20129;-76
2023/01/26 07:25:27;;;;;;;199.77;41.17;;;0.50;99.90;;;;;;5010632;28;20042;-76
2023/01/26 07:27:56;;;;;;;78.05;16.70;;;0.50;99.90;;;;;;5010394;28;20053;-76
2023/01/26 07:30:22;;;;;;;190.75;41.88;;;0.50;99.90;;;;;;4994131;28;20037;-76
2023/01/26 07:32:48;;;;;;;69.55;16.70;;;0.50;99.90;;;;;;4994019;28;20381;-76
2023/01/26 07:35:13;;;;;;;214.45;41.42;;;0.50;99.90;;;;;;4993949;28;20119;-76
2023/01/26 07:37:39;;;;;;;248.43;43.78;;;0.50;99.90;;;;;;5010117;28;20041;-76
2023/01/26 07:40:05;;;;;;;319.60;51.28;;;0.60;99.90;;;;;;5010439;28;20537;-76
2023/01/26 07:42:31;;;;;;;202.57;45.28;;;0.60;99.90;;;;;;5010291;28;20080;-76
2023/01/26 07:44:57;;;;;;;285.10;48.92;;;0.60;99.90;;;;;;5010156;28;20041;-76
2023/01/26 07:47:22;;;;;;;292.45;50.78;;;0.60;99.90;;;;;;5010415;28;20172;-76
2023/01/26 07:49:48;;;;;;;283.58;48.97;;;0.60;99.90;;;;;;5010656;28;20514;-76
2023/01/26 07:52:13;;;;;;;333.25;48.97;;;0.60;99.90;;;;;;5010339;28;20048;-76
2023/01/26 07:54:39;;;;;;;308.45;49.65;;;0.60;99.90;;;;;;5010286;28;20038;-76
2023/01/26 07:57:07;;;;;;;216.38;44.67;;;0.60;99.90;;;;;;5010041;28;20107;-76
2023/01/26 07:59:33;;;;;;;291.55;50.17;;;0.60;99.90;;;;;;5010276;28;20125;-76
2023/01/26 08:01:59;;;;;;;104.40;18.67;;;0.60;99.90;;;;;;5010431;28;20112;-76
2023/01/26 08:04:24;;;;;;;320.20;49.67;;;0.60;99.90;;;;;;5010226;28;20045;-76
2023/01/26 08:06:51;;;;;;;208.55;45.28;;;0.60;99.90;;;;;;5010273;28;20037;-76
2023/01/26 08:09:16;;;;;;;306.08;48.25;;;0.60;99.90;;;;;;5010216;28;20045;-76
2023/01/26 08:11:42;;;;;;;212.52;45.30;;;0.60;99.90;;;;;;5010231;28;20038;-76
2023/01/26 08:14:07;;;;;;;156.35;21.40;;;0.70;99.90;;;;;;5009969;28;20038;-76
2023/01/26 08:16:33;;;;;;;88.70;17.25;;;0.60;99.90;;;;;;4996299;28;20085;-76
2023/01/26 08:18:59;;;;;;;467.52;59.67;;;0.60;99.90;;;;;;4997335;28;20050;-76
2023/01/26 08:21:24;;;;;;;329.23;51.05;;;0.60;99.90;;;;;;5013729;28;20034;-76
2023/01/26 08:23:50;;;;;;;318.48;48.13;;;0.60;99.90;;;;;;5013457;28;20123;-76
2023/01/26 08:26:18;;;;;;;498.38;59.40;;;0.60;99.90;;;;;;5013628;28;20034;-76
2023/01/26 08:28:44;;;;;;;546.03;63.25;;;0.60;99.90;;;;;;5013278;28;20069;-76
2023/01/26 08:31:12;;;;;;;417.52;52.55;;;0.60;99.90;;;;;;4997041;28;20070;-76
2023/01/26 08:33:40;;;;;;;112.03;18.25;;;0.60;99.90;;;;;;4997376;28;20077;-76
2023/01/26 08:36:09;;;;;;;127.88;18.00;;;0.60;99.90;;;;;;5013466;28;20042;-76
2023/01/26 08:38:38;;;;;;;366.88;49.00;;;0.50;99.90;;;;;;5013164;28;20041;-76
2023/01/26 08:41:04;;;;;;;281.85;45.72;;;0.50;99.90;;;;;;5013343;28;20049;-76
2023/01/26 08:43:30;;;;;;;364.33;49.85;;;0.50;99.90;;;;;;5012867;28;20050;-76
2023/01/26 08:45:56;;;;;;;365.13;46.95;;;0.50;99.90;;;;;;5013154;28;20132;-76
2023/01/26 08:48:22;;;;;;;430.50;53.53;;;0.50;99.90;;;;;;4996610;28;20547;-76
2023/01/26 08:50:47;;;;;;;423.70;51.35;;;0.50;99.90;;;;;;5013127;28;20034;-76
2023/01/26 08:53:13;;;;;;;261.13;20.85;;;0.50;99.90;;;;;;5013158;28;20045;-76
2023/01/26 08:55:39;;;;;;;501.48;57.63;;;0.50;99.90;;;;;;5013058;28;20077;-76
2023/01/26 08:58:04;;;;;;;392.48;25.13;;;0.50;99.90;;;;;;5012623;28;20125;-76
2023/01/26 09:00:30;;;;;;;184.68;18.88;;;0.50;99.90;;;;;;5013229;28;20042;-76
2023/01/26 09:03:00;;;;;;;548.35;62.13;;;0.50;99.90;;;;;;5012774;28;20049;-76
2023/01/26 09:05:29;;;;;;;530.38;60.15;;;0.60;99.90;;;;;;5013084;28;20042;-76
2023/01/26 09:07:55;;;;;;;315.35;46.47;;;0.60;99.90;;;;;;5012887;28;20038;-76
2023/01/26 09:10:21;;;;;;;220.13;41.70;;;0.60;99.90;;;;;;5012733;28;20046;-76
2023/01/26 09:12:46;;;;;;;255.68;42.55;;;0.70;99.90;;;;;;5012417;28;20073;-76
2023/01/26 09:15:12;;;;;;;185.32;38.40;;;0.70;99.90;;;;;;5012893;28;20046;-77
2023/01/26 09:17:37;;;;;;;145.20;38.03;;;0.70;99.90;;;;;;4996169;28;20045;-77
2023/01/26 09:20:07;;;;;;;142.63;34.72;;;0.70;99.90;;;;;;5012590;28;20508;-77
2023/01/26 09:22:33;;;;;;;139.98;32.95;;;0.70;99.90;;;;;;5012597;28;20064;-77
2023/01/26 09:24:58;;;;;;;139.15;33.53;;;0.80;99.90;;;;;;5012294;28;20499;-77
2023/01/26 09:27:24;;;;;;;138.65;31.98;;;0.80;99.90;;;;;;5011249;28;20547;-77
2023/01/26 09:29:51;;;;;;;48.30;12.65;;;0.90;99.90;;;;;;5012325;28;20042;-77
2023/01/26 09:32:16;;;;;;;40.42;10.57;;;1.00;99.90;;;;;;5012379;28;20046;-77
2023/01/26 09:34:42;;;;;;;150.65;32.67;;;1.10;99.90;;;;;;5012494;28;20067;-77
2023/01/26 09:37:08;;;;;;;127.85;32.30;;;1.20;99.90;;;;;;5012363;28;20052;-76
2023/01/26 09:39:34;;;;;;;141.35;29.08;;;1.40;99.90;;;;;;5012457;28;20038;-76
2023/01/26 09:42:24;;;;;;;101.55;25.15;;;1.60;99.90;;;;;;5012118;28;20049;-76
2023/01/26 09:45:11;;;;;;;135.90;26.55;;;1.70;99.90;;;;;;5011991;28;20057;-76
2023/01/26 09:47:40;;;;;;;78.18;22.55;;;1.90;99.90;;;;;;4996027;28;20439;-76
2023/01/26 09:50:39;;;;;;;85.22;22.48;;;2.00;99.90;;;;;;5012053;28;20057;-76
2023/01/26 09:53:10;;;;;;;102.72;22.27;;;2.20;99.90;;;;;;5011889;28;20096;-76
2023/01/26 09:55:36;;;;;;;71.13;19.00;;;2.40;99.90;;;;;;5012145;28;20124;-77
2023/01/26 09:58:06;;;;;;;119.63;21.77;;;2.60;99.90;;;;;;5011730;28;20488;-77
2023/01/26 10:00:51;;;;;;;60.20;16.83;;;2.80;99.90;;;;;;4995535;28;20038;-77
2023/01/26 10:03:30;;;;;;;94.43;19.33;;;3.10;99.90;;;;;;5011964;28;20468;-77
2023/01/26 10:06:15;;;;;;;61.28;15.27;;;3.40;99.90;;;;;;5011841;28;20038;-77
2023/01/26 10:08:42;;;;;;;64.10;13.82;;;3.70;99.90;;;;;;5011587;28;20044;-74
2023/01/26 10:11:23;;;;;;;49.75;12.90;;;3.90;99.90;;;;;;5011574;28;20041;-75
2023/01/26 10:14:06;;;;;;;58.95;13.05;;;4.00;99.90;;;;;;5012047;28;20077;-75
2023/01/26 10:16:33;;;;;;;53.22;12.70;;;4.20;99.90;;;;;;5011683;28;20048;-75
2023/01/26 10:19:13;;;;;;;50.30;12.45;;;4.30;99.90;;;;;;4995134;28;20061;-75
2023/01/26 10:21:43;;;;;;;56.03;12.90;;;4.40;99.90;;;;;;4995076;28;20049;-75
2023/01/26 10:24:10;;;;;;;46.60;10.75;;;4.50;99.90;;;;;;5011517;28;20038;-75
2023/01/26 10:26:36;;;;;;;44.97;11.43;;;4.50;99.90;;;;;;5011357;28;20042;-75
2023/01/26 10:29:03;;;;;;;41.03;10.50;;;4.60;99.90;;;;;;5011276;28;20038;-75
2023/01/26 10:31:31;;;;;;;38.88;10.52;;;4.80;99.90;;;;;;5011380;28;20046;-77
2023/01/26 10:34:00;;;;;;;49.47;10.98;;;5.00;99.90;;;;;;5011150;28;20049;-75
2023/01/26 10:36:30;;;;;;;38.53;10.10;;;5.10;99.90;;;;;;5011131;28;20081;-75
2023/01/26 10:39:04;;;;;;;47.88;10.40;;;5.10;99.90;;;;;;5010967;28;20065;-75
2023/01/26 10:41:30;;;;;;;38.88;9.20;;;5.20;99.90;;;;;;5011060;28;20038;-75
2023/01/26 10:43:58;;;;;;;42.22;9.52;;;5.30;99.90;;;;;;5010895;28;20045;-75
2023/01/26 10:46:27;;;;;;;40.50;8.82;;;5.40;99.90;;;;;;5010983;28;20034;-75
2023/01/26 10:49:00;;;;;;;40.05;8.18;;;5.60;99.90;;;;;;5010864;28;20041;-75
2023/01/26 10:51:33;;;;;;;33.45;7.45;;;5.80;99.90;;;;;;5011044;28;20095;-75
2023/01/26 10:54:18;;;;;;;39.45;8.10;;;5.90;99.90;;;;;;5010930;28;20052;-75
2023/01/26 10:56:56;;;;;;;31.42;6.53;;;6.00;99.90;;;;;;4994520;28;20120;-75
2023/01/26 10:59:32;;;;;;;38.67;6.78;;;6.10;99.90;;;;;;5011252;28;20046;-76
2023/01/26 11:02:13;;;;;;;38.15;6.70;;;6.20;99.90;;;;;;5010912;28;20088;-75
2023/01/26 11:04:38;;;;;;;26.23;5.57;;;6.30;99.90;;;;;;4994344;28;20065;-75
2023/01/26 11:07:27;;;;;;;31.67;5.20;;;6.40;99.90;;;;;;5010630;28;20140;-75
2023/01/26 11:09:54;;;;;;;25.27;5.35;;;6.50;99.90;;;;;;5010788;28;20037;-75
2023/01/26 11:12:21;;;;;;;27.33;5.05;;;6.60;99.90;;;;;;5010648;28;20045;-75
2023/01/26 11:15:14;;;;;;;24.65;4.95;;;6.60;99.90;;;;;;5010550;28;20041;-75
2023/01/26 11:17:55;;;;;;;27.67;5.20;;;6.70;99.90;;;;;;5010364;28;20069;-76
2023/01/26 11:20:25;;;;;;;26.40;4.22;;;6.90;99.90;;;;;;4994005;28;20141;-75
2023/01/26 11:23:03;;;;;;;26.42;4.40;;;7.00;99.90;;;;;;5010743;28;20049;-76
2023/01/26 11:25:47;;;;;;;23.52;4.15;;;7.20;99.90;;;;;;5010846;28;20092;-76
2023/01/26 11:28:49;;;;;;;26.65;4.35;;;7.30;99.90;;;;;;4994011;28;20046;-76
2023/01/26 11:31:42;;;;;;;21.60;4.30;;;7.40;99.90;;;;;;5010635;28;20034;-75
2023/01/26 11:34:29;;;;;;;22.75;4.45;;;7.40;99.90;;;;;;4961226;28;20081;-75
2023/01/26 11:37:18;;;;;;;20.60;3.95;;;7.50;99.90;;;;;;5010443;28;20057;-75
2023/01/26 11:40:00;;;;;;;24.95;4.47;;;7.60;99.90;;;;;;5010449;28;20523;-75
2023/01/26 11:42:46;;;;;;;19.52;3.70;;;7.80;99.90;;;;;;5010536;28;20041;-75
2023/01/26 11:45:22;;;;;;;21.65;3.50;;;7.80;99.90;;;;;;5010454;28;20104;-75
2023/01/26 11:48:05;;;;;;;15.85;3.42;;;7.70;99.90;;;;;;5010497;28;20403;-75
2023/01/26 11:50:45;;;;;;;19.63;3.78;;;7.70;99.90;;;;;;4994913;28;20100;-75
2023/01/26 11:53:48;;;;;;;17.13;3.40;;;7.70;99.90;;;;;;5014354;28;20080;-75
2023/01/26 11:56:41;;;;;;;18.42;2.72;;;8.00;99.90;;;;;;4998226;28;20462;-75
2023/01/26 11:59:18;;;;;;;18.08;3.55;;;8.30;99.90;;;;;;5014032;28;20041;-75
2023/01/26 12:01:49;;;;;;;12.48;2.42;;;8.30;99.90;;;;;;5014173;28;20053;-75
2023/01/26 12:04:20;;;;;;;13.35;3.08;;;8.40;99.90;;;;;;5013956;28;20155;-75
2023/01/26 12:07:11;;;;;;;16.00;3.42;;;8.60;99.90;;;;;;4997670;28;20073;-75
2023/01/26 12:09:42;;;;;;;11.77;2.63;;;8.50;99.90;;;;;;5013960;28;20038;-75
2023/01/26 12:12:27;;;;;;;12.43;3.38;;;8.60;99.90;;;;;;4997622;28;20034;-75
2023/01/26 12:14:59;;;;;;;18.20;3.78;;;9.10;99.90;;;;;;4997312;28;20096;-75
2023/01/26 12:17:36;;;;;;;16.43;3.37;;;9.20;99.90;;;;;;5013849;28;20088;-75
2023/01/26 12:20:22;;;;;;;15.73;3.22;;;9.50;99.90;;;;;;5014079;28;20443;-75
2023/01/26 12:23:09;;;;;;;14.98;2.88;;;9.90;99.90;;;;;;4997236;28;20041;-75
2023/01/26 12:25:38;;;;;;;13.93;2.83;;;9.90;99.90;;;;;;5013861;28;20042;-75
2023/01/26 12:28:43;;;;;;;12.35;2.22;;;9.80;99.90;;;;;;5013574;28;20128;-75
2023/01/26 12:31:21;;;;;;;14.90;2.70;;;10.00;99.90;;;;;;5013221;28;20124;-75
2023/01/26 12:33:50;;;;;;;12.60;2.30;;;10.20;99.90;;;;;;5013933;28;20050;-75
2023/01/26 12:36:24;;;;;;;13.13;2.40;;;10.40;99.90;;;;;;5013763;28;20108;-75
2023/01/26 12:39:02;;;;;;;11.63;2.63;;;10.50;99.90;;;;;;5013179;28;20531;-75
2023/01/26 12:41:40;;;;;;;13.45;2.80;;;10.50;99.90;;;;;;5013483;28;20396;-75
2023/01/26 12:44:27;;;;;;;10.32;2.40;;;10.60;99.90;;;;;;5013233;28;20042;-75
2023/01/26 12:47:15;;;;;;;11.68;2.30;;;10.50;99.90;;;;;;5013272;28;20113;-75
2023/01/26 12:50:01;;;;;;;11.52;2.50;;;10.40;99.90;;;;;;5013210;28;20038;-75
2023/01/26 12:52:48;;;;;;;12.23;2.35;;;10.40;99.90;;;;;;5013183;28;20045;-75
2023/01/26 12:55:24;;;;;;;12.15;3.05;;;10.70;99.90;;;;;;5013197;28;20046;-75
2023/01/26 12:58:04;;;;;;;12.75;2.47;;;10.70;99.90;;;;;;5012988;28;20045;-75
2023/01/26 13:00:33;;;;;;;11.40;2.10;;;11.00;99.90;;;;;;5013057;28;20129;-75
2023/01/26 13:03:04;;;;;;;13.68;2.60;;;11.10;99.90;;;;;;5011916;28;20037;-75
2023/01/26 13:05:34;;;;;;;8.63;1.90;;;10.50;99.90;;;;;;5012843;28;20088;-75
2023/01/26 13:08:31;;;;;;;7.72;2.15;;;9.80;99.90;;;;;;5012647;28;20125;-75
2023/01/26 13:10:58;;;;;;;5.97;1.33;;;9.40;99.90;;;;;;5012816;28;20049;-75
2023/01/26 13:13:30;;;;;;;8.45;1.95;;;9.00;99.90;;;;;;4996547;28;20037;-75
2023/01/26 13:16:19;;;;;;;8.55;1.40;;;8.80;99.90;;;;;;5013036;28;20408;-75
2023/01/26 13:18:53;;;;;;;9.38;1.90;;;8.70;99.90;;;;;;4999730;28;20673;-75
2023/01/26 13:21:38;;;;;;;7.53;1.55;;;8.70;99.90;;;;;;5012838;28;20034;-75
2023/01/26 13:24:16;;;;;;;7.95;1.88;;;8.50;99.90;;;;;;5012211;28;20084;-75
2023/01/26 13:26:47;;;;;;;6.90;1.80;;;8.40;99.90;;;;;;5012446;28;20038;-75
2023/01/26 13:29:28;;;;;;;7.90;1.80;;;8.30;99.90;;;;;;5012296;28;20072;-75
2023/01/26 13:31:55;;;;;;;10.32;1.80;;;8.20;99.90;;;;;;5012440;28;20042;-75
2023/01/26 13:34:35;;;;;;;10.45;2.20;;;8.10;99.90;;;;;;5012279;28;20526;-75